M/T Goviken — 9HA2718 — position and weather

sailwx.info

Track history (hours):
 
Tides and Currents Weather Stations Pressure Air Temp Water Temp Dewpoint Dewpoint Depression Visibility Wind Speed Wind Dir Waves Ship Positions

M/T Goviken

Last reported at 2014-Sep-01 19:33 UTC. Time now 2014-Sep-03 04:59 UTC.
Position N 37°56' W 008°53'.

Length 88 m; draft 5.3 m.

Type: Ship (hazmat cat C). MMSI: 215389000.

Date/timePositionNaut miles runAvg speedWind from/ knotsBaromVisibWave heightAir tempDewpointWater temp
2014-Sep-01 19:33N 37°56' W 008°53'2 0.4
2014-Sep-01 15:31N 37°55' W 008°52'0 0.0
2014-Sep-01 14:22N 37°55' W 008°52'0 0.0
2014-Sep-01 13:31N 37°55' W 008°52'0 0.1
2014-Sep-01 12:34N 37°55' W 008°52'9 7.9
2014-Sep-01 11:28N 37°47' W 008°55'10 8.3
2014-Sep-01 10:14N 37°38' W 009°01'6 7.7
2014-Sep-01 09:27N 37°32' W 009°04'7 7.2
2014-Sep-01 08:27N 37°26' W 009°09'7 7.5
2014-Sep-01 07:34N 37°20' W 009°13'7 6.7
2014-Sep-01 06:34N 37°14' W 009°16'8 6.2
2014-Sep-01 05:13N 37°07' W 009°21'4 6.3
2014-Sep-01 04:32N 37°03' W 009°24'5 5.7
2014-Sep-01 03:33N 36°57' W 009°25'7 6.5
2014-Sep-01 02:33N 36°51' W 009°24'7 6.9
2014-Sep-01 01:34N 36°46' W 009°18'7 6.5
2014-Sep-01 00:33N 36°42' W 009°12'7 7.1
2014-Aug-31 23:33N 36°39' W 009°03'7 7.2
2014-Aug-31 22:33N 36°39' W 008°54'8 7.6
2014-Aug-31 21:33N 36°40' W 008°45'8 7.7
2014-Aug-31 20:33N 36°40' W 008°35'7 6.8
2014-Aug-31 19:33N 36°41' W 008°27'7 6.8
2014-Aug-31 18:33N 36°42' W 008°19'7 7.3
2014-Aug-31 17:33N 36°42' W 008°10'9 7.4
2014-Aug-31 16:21N 36°43' W 007°58'7 7.5
2014-Aug-31 15:27N 36°44' W 007°50'7 7.3
2014-Aug-31 14:29N 36°44' W 007°41'9 7.5
2014-Aug-31 13:18N 36°45' W 007°30'21 7.6
2014-Aug-31 10:33N 36°48' W 007°05'30 1.1
2014-Aug-30 07:07N 36°41' W 007°42'5 9.2
2014-Aug-30 06:33N 36°40' W 007°48'9 9.3
2014-Aug-30 05:33N 36°38' W 007°60'10 9.8
2014-Aug-30 04:33N 36°36' W 008°11'10 9.6
2014-Aug-30 03:33N 36°34' W 008°23'9 9.2
2014-Aug-30 02:33N 36°34' W 008°34'9 9.2
2014-Aug-30 01:33N 36°31' W 008°45'9 8.6
2014-Aug-30 00:33N 36°29' W 008°56'8 8.2
2014-Aug-29 23:33N 36°28' W 009°06'8 8.3
2014-Aug-29 22:33N 36°30' W 009°16'8 8.5
2014-Aug-29 21:33N 36°35' W 009°24'9 9.1
2014-Aug-29 20:33N 36°42' W 009°32'9 8.6
2014-Aug-29 19:31N 36°49' W 009°38'48 8.8
2014-Aug-29 14:04N 37°32' W 009°09'1610.4
2014-Aug-29 12:32N 37°45' W 008°57'12 0.4
2014-Aug-28 02:12N 37°57' W 008°53'2 0.3
2014-Aug-27 20:28N 37°55' W 008°52'0 0.0
2014-Aug-27 19:19N 37°55' W 008°52'0 0.0
2014-Aug-27 09:19N 37°55' W 008°52'8 4.3
2014-Aug-27 07:24N 37°47' W 008°55'14 6.2
2014-Aug-27 05:12N 37°34' W 009°02'5 6.0
2014-Aug-27 04:24N 37°31' W 009°05'5 4.6
2014-Aug-27 03:18N 37°26' W 009°08'5 6.3
2014-Aug-27 02:32N 37°22' W 009°11'7 6.7
2014-Aug-27 01:33N 37°16' W 009°14'13 6.7
2014-Aug-26 23:33N 37°04' W 009°22'7 6.7
2014-Aug-26 22:33N 36°58' W 009°25'8 7.0
2014-Aug-26 21:29N 36°51' W 009°24'6 6.8
2014-Aug-26 20:33N 36°46' W 009°18'6 6.2
2014-Aug-26 19:33N 36°42' W 009°12'6 6.2
2014-Aug-26 18:30N 36°40' W 009°05'10 6.8
2014-Aug-26 17:06N 36°37' W 008°53'5 6.7
2014-Aug-26 16:22N 36°35' W 008°48'6 6.9
2014-Aug-26 15:30N 36°34' W 008°41'6 6.4
2014-Aug-26 14:33N 36°32' W 008°33'6 6.2
2014-Aug-26 13:33N 36°30' W 008°26'27 6.8
2014-Aug-26 09:31N 36°22' W 007°53'8 7.6
2014-Aug-26 08:29N 36°20' W 007°44'18 8.0
2014-Aug-26 06:11N 36°15' W 007°22'4 6.7
2014-Aug-26 05:33N 36°14' W 007°17'7 6.8
2014-Aug-26 04:33N 36°12' W 007°09'7 6.7
2014-Aug-26 03:33N 36°10' W 007°01'7 6.9
2014-Aug-26 02:34N 36°07' W 006°53'8 6.8
2014-Aug-26 01:23N 36°05' W 006°43'6 6.9
2014-Aug-26 00:33N 36°04' W 006°36'61 6.6
2014-Aug-25 15:25N 35°57' W 005°22'2 2.3
2014-Aug-25 14:32N 35°55' W 005°21'0 0.1
2014-Aug-25 13:32N 35°55' W 005°21'0 0.0
2014-Aug-25 12:32N 35°55' W 005°21'0 0.1
2014-Aug-25 11:26N 35°55' W 005°21'0 0.0
2014-Aug-25 10:32N 35°55' W 005°21'0 0.0
2014-Aug-25 09:32N 35°55' W 005°21'0 0.0
2014-Aug-25 08:29N 35°55' W 005°21'0 0.1
2014-Aug-25 07:32N 35°55' W 005°21'0 0.0
2014-Aug-25 06:32N 35°55' W 005°21'0 0.0
2014-Aug-25 05:26N 35°55' W 005°21'0 0.0
2014-Aug-25 04:32N 35°55' W 005°21'0 0.1
2014-Aug-25 03:32N 35°55' W 005°21'0 0.0
2014-Aug-25 02:32N 35°55' W 005°21'0 0.1
2014-Aug-25 01:32N 35°55' W 005°21'0 0.0
2014-Aug-25 00:32N 35°55' W 005°21'0 0.0
2014-Aug-24 23:32N 35°55' W 005°21'0 0.0
2014-Aug-24 22:32N 35°55' W 005°21'0 0.1
2014-Aug-24 21:32N 35°55' W 005°21'0 0.0
2014-Aug-24 20:32N 35°55' W 005°21'0 0.0
2014-Aug-24 19:32N 35°55' W 005°21'0 0.0
2014-Aug-24 18:32N 35°55' W 005°21'0 0.0
2014-Aug-24 17:32N 35°55' W 005°21'0 0.0
2014-Aug-24 16:32N 35°55' W 005°21'0 0.0
2014-Aug-24 15:32N 35°55' W 005°21'0 0.1
2014-Aug-24 14:32N 35°55' W 005°21'0 0.1
2014-Aug-24 13:29N 35°55' W 005°21'0 0.0
2014-Aug-24 12:32N 35°55' W 005°21'0 0.0
2014-Aug-24 11:32N 35°55' W 005°21'0 0.0
2014-Aug-24 10:32N 35°55' W 005°20'0 0.1
2014-Aug-24 09:29N 35°55' W 005°21'0 0.1
2014-Aug-24 08:32N 35°55' W 005°21'0 0.1
2014-Aug-24 07:32N 35°55' W 005°21'0 0.1
2014-Aug-24 06:32N 35°55' W 005°21'0 0.0
2014-Aug-24 05:32N 35°55' W 005°21'0 0.0
2014-Aug-24 04:32N 35°55' W 005°21'0 0.0
2014-Aug-24 03:32N 35°55' W 005°21'0 0.0
2014-Aug-24 02:32N 35°55' W 005°21'0 0.0
2014-Aug-24 01:32N 35°55' W 005°21'0 0.0
2014-Aug-24 00:32N 35°55' W 005°21'0 0.0
2014-Aug-23 23:32N 35°55' W 005°21'0 0.0
2014-Aug-23 22:32N 35°55' W 005°21'0 0.1
2014-Aug-23 21:32N 35°55' W 005°20'0 0.0
2014-Aug-23 20:32N 35°55' W 005°20'0 0.1
2014-Aug-23 19:32N 35°55' W 005°21'0 0.0
2014-Aug-23 03:32N 35°55' W 005°20'0 0.0
2014-Aug-23 02:32N 35°55' W 005°20'0 0.0
2014-Aug-23 01:29N 35°55' W 005°20'0 0.0
2014-Aug-23 00:32N 35°55' W 005°20'0 0.0
2014-Aug-22 23:32N 35°55' W 005°20'0 0.0
2014-Aug-22 22:32N 35°55' W 005°20'0 0.0
2014-Aug-22 21:32N 35°55' W 005°20'0 0.0
2014-Aug-22 20:32N 35°55' W 005°20'  
Track history (hours):
 
Tides and Currents Weather Stations Pressure Air Temp Water Temp Dewpoint Dewpoint Depression Visibility Wind Speed Wind Dir Waves Ship Positions

M/T Goviken

Last reported at 2014-Sep-01 19:33 UTC. Time now 2014-Sep-03 04:59 UTC.
Position N 37°56' W 008°53'.

Length 88 m; draft 5.3 m.

Type: Ship (hazmat cat C). MMSI: 215389000.

Date/timePositionNaut miles runAvg speedWind from/ knotsBaromVisibWave heightAir tempDewpointWater temp
2014-Sep-01 19:33N 37°56' W 008°53'2 0.4
2014-Sep-01 15:31N 37°55' W 008°52'0 0.0
2014-Sep-01 14:22N 37°55' W 008°52'0 0.0
2014-Sep-01 13:31N 37°55' W 008°52'0 0.1
2014-Sep-01 12:34N 37°55' W 008°52'9 7.9
2014-Sep-01 11:28N 37°47' W 008°55'10 8.3
2014-Sep-01 10:14N 37°38' W 009°01'6 7.7
2014-Sep-01 09:27N 37°32' W 009°04'7 7.2
2014-Sep-01 08:27N 37°26' W 009°09'7 7.5
2014-Sep-01 07:34N 37°20' W 009°13'7 6.7
2014-Sep-01 06:34N 37°14' W 009°16'8 6.2
2014-Sep-01 05:13N 37°07' W 009°21'4 6.3
2014-Sep-01 04:32N 37°03' W 009°24'5 5.7
2014-Sep-01 03:33N 36°57' W 009°25'7 6.5
2014-Sep-01 02:33N 36°51' W 009°24'7 6.9
2014-Sep-01 01:34N 36°46' W 009°18'7 6.5
2014-Sep-01 00:33N 36°42' W 009°12'7 7.1
2014-Aug-31 23:33N 36°39' W 009°03'7 7.2
2014-Aug-31 22:33N 36°39' W 008°54'8 7.6
2014-Aug-31 21:33N 36°40' W 008°45'8 7.7
2014-Aug-31 20:33N 36°40' W 008°35'7 6.8
2014-Aug-31 19:33N 36°41' W 008°27'7 6.8
2014-Aug-31 18:33N 36°42' W 008°19'7 7.3
2014-Aug-31 17:33N 36°42' W 008°10'9 7.4
2014-Aug-31 16:21N 36°43' W 007°58'7 7.5
2014-Aug-31 15:27N 36°44' W 007°50'7 7.3
2014-Aug-31 14:29N 36°44' W 007°41'9 7.5
2014-Aug-31 13:18N 36°45' W 007°30'21 7.6
2014-Aug-31 10:33N 36°48' W 007°05'30 1.1
2014-Aug-30 07:07N 36°41' W 007°42'5 9.2
2014-Aug-30 06:33N 36°40' W 007°48'9 9.3
2014-Aug-30 05:33N 36°38' W 007°60'10 9.8
2014-Aug-30 04:33N 36°36' W 008°11'10 9.6
2014-Aug-30 03:33N 36°34' W 008°23'9 9.2
2014-Aug-30 02:33N 36°34' W 008°34'9 9.2
2014-Aug-30 01:33N 36°31' W 008°45'9 8.6
2014-Aug-30 00:33N 36°29' W 008°56'8 8.2
2014-Aug-29 23:33N 36°28' W 009°06'8 8.3
2014-Aug-29 22:33N 36°30' W 009°16'8 8.5
2014-Aug-29 21:33N 36°35' W 009°24'9 9.1
2014-Aug-29 20:33N 36°42' W 009°32'9 8.6
2014-Aug-29 19:31N 36°49' W 009°38'48 8.8
2014-Aug-29 14:04N 37°32' W 009°09'1610.4
2014-Aug-29 12:32N 37°45' W 008°57'12 0.4
2014-Aug-28 02:12N 37°57' W 008°53'2 0.3
2014-Aug-27 20:28N 37°55' W 008°52'0 0.0
2014-Aug-27 19:19N 37°55' W 008°52'0 0.0
2014-Aug-27 09:19N 37°55' W 008°52'8 4.3
2014-Aug-27 07:24N 37°47' W 008°55'14 6.2
2014-Aug-27 05:12N 37°34' W 009°02'5 6.0
2014-Aug-27 04:24N 37°31' W 009°05'5 4.6
2014-Aug-27 03:18N 37°26' W 009°08'5 6.3
2014-Aug-27 02:32N 37°22' W 009°11'7 6.7
2014-Aug-27 01:33N 37°16' W 009°14'13 6.7
2014-Aug-26 23:33N 37°04' W 009°22'7 6.7
2014-Aug-26 22:33N 36°58' W 009°25'8 7.0
2014-Aug-26 21:29N 36°51' W 009°24'6 6.8
2014-Aug-26 20:33N 36°46' W 009°18'6 6.2
2014-Aug-26 19:33N 36°42' W 009°12'6 6.2
2014-Aug-26 18:30N 36°40' W 009°05'10 6.8
2014-Aug-26 17:06N 36°37' W 008°53'5 6.7
2014-Aug-26 16:22N 36°35' W 008°48'6 6.9
2014-Aug-26 15:30N 36°34' W 008°41'6 6.4
2014-Aug-26 14:33N 36°32' W 008°33'6 6.2
2014-Aug-26 13:33N 36°30' W 008°26'27 6.8
2014-Aug-26 09:31N 36°22' W 007°53'8 7.6
2014-Aug-26 08:29N 36°20' W 007°44'18 8.0
2014-Aug-26 06:11N 36°15' W 007°22'4 6.7
2014-Aug-26 05:33N 36°14' W 007°17'7 6.8
2014-Aug-26 04:33N 36°12' W 007°09'7 6.7
2014-Aug-26 03:33N 36°10' W 007°01'7 6.9
2014-Aug-26 02:34N 36°07' W 006°53'8 6.8
2014-Aug-26 01:23N 36°05' W 006°43'6 6.9
2014-Aug-26 00:33N 36°04' W 006°36'61 6.6
2014-Aug-25 15:25N 35°57' W 005°22'2 2.3
2014-Aug-25 14:32N 35°55' W 005°21'0 0.1
2014-Aug-25 13:32N 35°55' W 005°21'0 0.0
2014-Aug-25 12:32N 35°55' W 005°21'0 0.1
2014-Aug-25 11:26N 35°55' W 005°21'0 0.0
2014-Aug-25 10:32N 35°55' W 005°21'0 0.0
2014-Aug-25 09:32N 35°55' W 005°21'0 0.0
2014-Aug-25 08:29N 35°55' W 005°21'0 0.1
2014-Aug-25 07:32N 35°55' W 005°21'0 0.0
2014-Aug-25 06:32N 35°55' W 005°21'0 0.0
2014-Aug-25 05:26N 35°55' W 005°21'0 0.0
2014-Aug-25 04:32N 35°55' W 005°21'0 0.1
2014-Aug-25 03:32N 35°55' W 005°21'0 0.0
2014-Aug-25 02:32N 35°55' W 005°21'0 0.1
2014-Aug-25 01:32N 35°55' W 005°21'0 0.0
2014-Aug-25 00:32N 35°55' W 005°21'0 0.0
2014-Aug-24 23:32N 35°55' W 005°21'0 0.0
2014-Aug-24 22:32N 35°55' W 005°21'0 0.1
2014-Aug-24 21:32N 35°55' W 005°21'0 0.0
2014-Aug-24 20:32N 35°55' W 005°21'0 0.0
2014-Aug-24 19:32N 35°55' W 005°21'0 0.0
2014-Aug-24 18:32N 35°55' W 005°21'0 0.0
2014-Aug-24 17:32N 35°55' W 005°21'0 0.0
2014-Aug-24 16:32N 35°55' W 005°21'0 0.0
2014-Aug-24 15:32N 35°55' W 005°21'0 0.1
2014-Aug-24 14:32N 35°55' W 005°21'0 0.1
2014-Aug-24 13:29N 35°55' W 005°21'0 0.0
2014-Aug-24 12:32N 35°55' W 005°21'0 0.0
2014-Aug-24 11:32N 35°55' W 005°21'0 0.0
2014-Aug-24 10:32N 35°55' W 005°20'0 0.1
2014-Aug-24 09:29N 35°55' W 005°21'0 0.1
2014-Aug-24 08:32N 35°55' W 005°21'0 0.1
2014-Aug-24 07:32N 35°55' W 005°21'0 0.1
2014-Aug-24 06:32N 35°55' W 005°21'0 0.0
2014-Aug-24 05:32N 35°55' W 005°21'0 0.0
2014-Aug-24 04:32N 35°55' W 005°21'0 0.0
2014-Aug-24 03:32N 35°55' W 005°21'0 0.0
2014-Aug-24 02:32N 35°55' W 005°21'0 0.0
2014-Aug-24 01:32N 35°55' W 005°21'0 0.0
2014-Aug-24 00:32N 35°55' W 005°21'0 0.0
2014-Aug-23 23:32N 35°55' W 005°21'0 0.0
2014-Aug-23 22:32N 35°55' W 005°21'0 0.1
2014-Aug-23 21:32N 35°55' W 005°20'0 0.0
2014-Aug-23 20:32N 35°55' W 005°20'0 0.1
2014-Aug-23 19:32N 35°55' W 005°21'0 0.0
2014-Aug-23 03:32N 35°55' W 005°20'0 0.0
2014-Aug-23 02:32N 35°55' W 005°20'0 0.0
2014-Aug-23 01:29N 35°55' W 005°20'0 0.0
2014-Aug-23 00:32N 35°55' W 005°20'0 0.0
2014-Aug-22 23:32N 35°55' W 005°20'0 0.0
2014-Aug-22 22:32N 35°55' W 005°20'0 0.0
2014-Aug-22 21:32N 35°55' W 005°20'0 0.0
2014-Aug-22 20:32N 35°55' W 005°20'  

Dump ship's entire track history